sensor_id;sensor_type;location;lat;lon;timestamp;pressure;altitude;pressure_sealevel;temperature;humidity
77431;BME280;66498;48.564;19.272;2024-02-15T00:01:30;98138.75;;;1.50;100.00
77431;BME280;66498;48.564;19.272;2024-02-15T00:03:56;98137.84;;;1.59;100.00
77431;BME280;66498;48.564;19.272;2024-02-15T00:06:22;98135.47;;;1.65;100.00
77431;BME280;66498;48.564;19.272;2024-02-15T00:08:48;98131.00;;;1.50;100.00
77431;BME280;66498;48.564;19.272;2024-02-15T00:11:13;98130.25;;;1.57;100.00
77431;BME280;66498;48.564;19.272;2024-02-15T00:13:39;98132.88;;;1.65;100.00
77431;BME280;66498;48.564;19.272;2024-02-15T00:16:04;98136.78;;;1.87;100.00
77431;BME280;66498;48.564;19.272;2024-02-15T00:18:31;98133.91;;;1.91;100.00
77431;BME280;66498;48.564;19.272;2024-02-15T00:20:57;98130.66;;;1.71;100.00
77431;BME280;66498;48.564;19.272;2024-02-15T00:23:22;98134.94;;;1.80;100.00
77431;BME280;66498;48.564;19.272;2024-02-15T00:25:48;98142.28;;;1.67;100.00
77431;BME280;66498;48.564;19.272;2024-02-15T00:28:15;98145.59;;;1.59;100.00
77431;BME280;66498;48.564;19.272;2024-02-15T00:30:40;98136.94;;;1.68;100.00
77431;BME280;66498;48.564;19.272;2024-02-15T00:33:06;98144.69;;;1.86;100.00
77431;BME280;66498;48.564;19.272;2024-02-15T00:35:32;98146.75;;;1.82;100.00
77431;BME280;66498;48.564;19.272;2024-02-15T00:37:58;98150.66;;;1.86;100.00
77431;BME280;66498;48.564;19.272;2024-02-15T00:40:23;98150.97;;;1.83;100.00
77431;BME280;66498;48.564;19.272;2024-02-15T00:42:49;98147.56;;;1.83;100.00
77431;BME280;66498;48.564;19.272;2024-02-15T00:45:14;98151.53;;;1.51;100.00
77431;BME280;66498;48.564;19.272;2024-02-15T00:47:40;98152.00;;;1.47;100.00
77431;BME280;66498;48.564;19.272;2024-02-15T00:50:08;98153.66;;;1.56;100.00
77431;BME280;66498;48.564;19.272;2024-02-15T00:52:34;98152.66;;;1.67;100.00
77431;BME280;66498;48.564;19.272;2024-02-15T00:54:59;98141.88;;;1.79;100.00
77431;BME280;66498;48.564;19.272;2024-02-15T00:57:25;98152.94;;;2.07;100.00
77431;BME280;66498;48.564;19.272;2024-02-15T00:59:50;98155.88;;;2.12;100.00
77431;BME280;66498;48.564;19.272;2024-02-15T01:02:17;98156.97;;;2.10;100.00
77431;BME280;66498;48.564;19.272;2024-02-15T01:04:43;98157.16;;;2.08;100.00
77431;BME280;66498;48.564;19.272;2024-02-15T01:07:10;98162.66;;;2.13;100.00
77431;BME280;66498;48.564;19.272;2024-02-15T01:09:36;98153.06;;;2.06;100.00
77431;BME280;66498;48.564;19.272;2024-02-15T01:12:01;98153.28;;;2.12;100.00
77431;BME280;66498;48.564;19.272;2024-02-15T01:14:29;98164.06;;;2.26;100.00
77431;BME280;66498;48.564;19.272;2024-02-15T01:16:56;98169.56;;;2.31;100.00
77431;BME280;66498;48.564;19.272;2024-02-15T01:19:22;98155.75;;;2.14;100.00
77431;BME280;66498;48.564;19.272;2024-02-15T01:21:47;98154.69;;;2.07;100.00
77431;BME280;66498;48.564;19.272;2024-02-15T01:24:13;98150.38;;;2.16;100.00
77431;BME280;66498;48.564;19.272;2024-02-15T01:26:38;98150.91;;;2.19;100.00
77431;BME280;66498;48.564;19.272;2024-02-15T01:29:04;98155.69;;;2.32;100.00
77431;BME280;66498;48.564;19.272;2024-02-15T01:31:29;98147.91;;;2.32;100.00
77431;BME280;66498;48.564;19.272;2024-02-15T01:33:55;98152.41;;;2.30;100.00
77431;BME280;66498;48.564;19.272;2024-02-15T01:36:20;98150.69;;;2.39;100.00
77431;BME280;66498;48.564;19.272;2024-02-15T01:38:45;98154.72;;;2.41;100.00
77431;BME280;66498;48.564;19.272;2024-02-15T01:41:11;98156.16;;;2.62;100.00
77431;BME280;66498;48.564;19.272;2024-02-15T01:43:37;98153.88;;;2.58;100.00
77431;BME280;66498;48.564;19.272;2024-02-15T01:46:08;98156.97;;;2.70;100.00
77431;BME280;66498;48.564;19.272;2024-02-15T01:48:35;98149.81;;;2.56;100.00
77431;BME280;66498;48.564;19.272;2024-02-15T01:51:01;98149.63;;;2.57;100.00
77431;BME280;66498;48.564;19.272;2024-02-15T01:53:29;98151.09;;;2.52;100.00
77431;BME280;66498;48.564;19.272;2024-02-15T01:55:56;98148.44;;;2.44;100.00
77431;BME280;66498;48.564;19.272;2024-02-15T01:58:24;98148.13;;;2.47;100.00
77431;BME280;66498;48.564;19.272;2024-02-15T02:00:50;98147.91;;;2.66;100.00
77431;BME280;66498;48.564;19.272;2024-02-15T02:03:17;98142.44;;;2.43;100.00
77431;BME280;66498;48.564;19.272;2024-02-15T02:05:46;98139.81;;;2.09;100.00
77431;BME280;66498;48.564;19.272;2024-02-15T02:08:11;98149.00;;;2.03;100.00
77431;BME280;66498;48.564;19.272;2024-02-15T02:10:37;98139.31;;;2.05;100.00
77431;BME280;66498;48.564;19.272;2024-02-15T02:13:04;98142.38;;;2.01;100.00
77431;BME280;66498;48.564;19.272;2024-02-15T02:15:34;98140.72;;;2.00;100.00
77431;BME280;66498;48.564;19.272;2024-02-15T02:18:04;98142.91;;;2.12;100.00
77431;BME280;66498;48.564;19.272;2024-02-15T02:20:34;98140.03;;;2.16;100.00
77431;BME280;66498;48.564;19.272;2024-02-15T02:23:16;98138.25;;;2.16;100.00
77431;BME280;66498;48.564;19.272;2024-02-15T02:25:44;98142.22;;;2.28;100.00
77431;BME280;66498;48.564;19.272;2024-02-15T02:28:10;98134.19;;;2.48;100.00
77431;BME280;66498;48.564;19.272;2024-02-15T02:30:36;98131.16;;;2.52;100.00
77431;BME280;66498;48.564;19.272;2024-02-15T02:33:01;98131.16;;;2.52;100.00
77431;BME280;66498;48.564;19.272;2024-02-15T02:35:27;98126.28;;;2.49;100.00
77431;BME280;66498;48.564;19.272;2024-02-15T02:37:56;98123.97;;;2.38;100.00
77431;BME280;66498;48.564;19.272;2024-02-15T02:40:22;98134.00;;;2.75;100.00
77431;BME280;66498;48.564;19.272;2024-02-15T02:42:55;98137.78;;;2.89;100.00
77431;BME280;66498;48.564;19.272;2024-02-15T02:45:27;98121.53;;;2.79;100.00
77431;BME280;66498;48.564;19.272;2024-02-15T02:47:59;98126.63;;;2.54;100.00
77431;BME280;66498;48.564;19.272;2024-02-15T02:50:27;98130.22;;;2.62;100.00
77431;BME280;66498;48.564;19.272;2024-02-15T02:52:53;98129.84;;;2.48;100.00
77431;BME280;66498;48.564;19.272;2024-02-15T02:55:19;98133.75;;;2.52;100.00
77431;BME280;66498;48.564;19.272;2024-02-15T02:57:45;98132.88;;;2.44;100.00
77431;BME280;66498;48.564;19.272;2024-02-15T03:00:13;98132.75;;;2.45;100.00
77431;BME280;66498;48.564;19.272;2024-02-15T03:02:42;98129.84;;;2.48;100.00
77431;BME280;66498;48.564;19.272;2024-02-15T03:05:09;98134.56;;;2.53;100.00
77431;BME280;66498;48.564;19.272;2024-02-15T03:07:36;98137.84;;;2.63;100.00
77431;BME280;66498;48.564;19.272;2024-02-15T03:10:03;98138.34;;;2.75;100.00
77431;BME280;66498;48.564;19.272;2024-02-15T03:12:39;98142.91;;;2.73;100.00
77431;BME280;66498;48.564;19.272;2024-02-15T03:15:06;98135.91;;;2.65;100.00
77431;BME280;66498;48.564;19.272;2024-02-15T03:17:37;98137.03;;;2.63;100.00
77431;BME280;66498;48.564;19.272;2024-02-15T03:20:06;98138.16;;;2.60;100.00
77431;BME280;66498;48.564;19.272;2024-02-15T03:22:59;98134.84;;;2.42;100.00
77431;BME280;66498;48.564;19.272;2024-02-15T03:25:26;98139.06;;;2.51;100.00
77431;BME280;66498;48.564;19.272;2024-02-15T03:27:55;98142.31;;;2.45;100.00
77431;BME280;66498;48.564;19.272;2024-02-15T03:30:22;98144.06;;;2.44;100.00
77431;BME280;66498;48.564;19.272;2024-02-15T03:32:49;98137.47;;;2.58;100.00
77431;BME280;66498;48.564;19.272;2024-02-15T03:35:17;98147.66;;;2.51;100.00
77431;BME280;66498;48.564;19.272;2024-02-15T03:37:42;98147.34;;;2.54;100.00
77431;BME280;66498;48.564;19.272;2024-02-15T03:40:09;98144.03;;;2.70;100.00
77431;BME280;66498;48.564;19.272;2024-02-15T03:42:35;98139.88;;;2.51;100.00
77431;BME280;66498;48.564;19.272;2024-02-15T03:45:04;98147.09;;;2.66;100.00
77431;BME280;66498;48.564;19.272;2024-02-15T03:47:33;98144.94;;;2.61;100.00
77431;BME280;66498;48.564;19.272;2024-02-15T03:50:07;98144.41;;;2.49;100.00
77431;BME280;66498;48.564;19.272;2024-02-15T03:52:36;98152.91;;;2.59;100.00
77431;BME280;66498;48.564;19.272;2024-02-15T03:55:02;98149.22;;;2.70;100.00
77431;BME280;66498;48.564;19.272;2024-02-15T03:57:28;98145.19;;;2.76;100.00
77431;BME280;66498;48.564;19.272;2024-02-15T03:59:54;98147.72;;;2.68;100.00
77431;BME280;66498;48.564;19.272;2024-02-15T04:02:23;98142.34;;;2.53;100.00
77431;BME280;66498;48.564;19.272;2024-02-15T04:04:52;98144.31;;;2.59;100.00
77431;BME280;66498;48.564;19.272;2024-02-15T04:07:18;98149.78;;;2.90;100.00
77431;BME280;66498;48.564;19.272;2024-02-15T04:09:45;98148.97;;;2.98;100.00
77431;BME280;66498;48.564;19.272;2024-02-15T04:12:11;98151.59;;;3.06;100.00
77431;BME280;66498;48.564;19.272;2024-02-15T04:14:37;98152.56;;;3.05;100.00
77431;BME280;66498;48.564;19.272;2024-02-15T04:17:06;98153.59;;;2.78;100.00
77431;BME280;66498;48.564;19.272;2024-02-15T04:19:32;98150.50;;;2.66;100.00
77431;BME280;66498;48.564;19.272;2024-02-15T04:21:57;98151.78;;;2.62;100.00
77431;BME280;66498;48.564;19.272;2024-02-15T04:24:24;98155.44;;;2.51;100.00
77431;BME280;66498;48.564;19.272;2024-02-15T04:26:50;98153.38;;;2.55;100.00
77431;BME280;66498;48.564;19.272;2024-02-15T04:29:17;98155.06;;;2.80;100.00
77431;BME280;66498;48.564;19.272;2024-02-15T04:31:45;98156.56;;;2.83;100.00
77431;BME280;66498;48.564;19.272;2024-02-15T04:34:13;98151.81;;;2.70;100.00
77431;BME280;66498;48.564;19.272;2024-02-15T04:36:38;98143.78;;;2.90;100.00
77431;BME280;66498;48.564;19.272;2024-02-15T04:39:04;98154.78;;;2.92;100.00
77431;BME280;66498;48.564;19.272;2024-02-15T04:41:30;98155.94;;;2.97;100.00
77431;BME280;66498;48.564;19.272;2024-02-15T04:43:55;98154.78;;;2.83;100.00
77431;BME280;66498;48.564;19.272;2024-02-15T04:46:21;98155.56;;;2.76;100.00
77431;BME280;66498;48.564;19.272;2024-02-15T04:48:50;98154.19;;;2.64;100.00
77431;BME280;66498;48.564;19.272;2024-02-15T04:51:16;98150.38;;;2.76;100.00
77431;BME280;66498;48.564;19.272;2024-02-15T04:53:45;98148.97;;;2.90;100.00
77431;BME280;66498;48.564;19.272;2024-02-15T04:56:12;98162.94;;;3.05;100.00
77431;BME280;66498;48.564;19.272;2024-02-15T04:58:40;98156.69;;;2.81;100.00
77431;BME280;66498;48.564;19.272;2024-02-15T05:01:16;98159.16;;;2.91;100.00
77431;BME280;66498;48.564;19.272;2024-02-15T05:03:42;98163.03;;;2.87;100.00
77431;BME280;66498;48.564;19.272;2024-02-15T05:06:08;98171.44;;;2.81;100.00
77431;BME280;66498;48.564;19.272;2024-02-15T05:08:34;98169.63;;;2.73;100.00
77431;BME280;66498;48.564;19.272;2024-02-15T05:11:11;98170.13;;;2.69;100.00
77431;BME280;66498;48.564;19.272;2024-02-15T05:13:44;98172.56;;;2.78;100.00
77431;BME280;66498;48.564;19.272;2024-02-15T05:16:12;98180.91;;;2.98;100.00
77431;BME280;66498;48.564;19.272;2024-02-15T05:18:38;98166.63;;;2.94;100.00
77431;BME280;66498;48.564;19.272;2024-02-15T05:21:06;98171.19;;;3.00;100.00
77431;BME280;66498;48.564;19.272;2024-02-15T05:23:36;98168.28;;;3.03;100.00
77431;BME280;66498;48.564;19.272;2024-02-15T05:26:03;98165.66;;;2.95;100.00
77431;BME280;66498;48.564;19.272;2024-02-15T05:28:29;98167.84;;;3.16;100.00
77431;BME280;66498;48.564;19.272;2024-02-15T05:33:39;98164.66;;;2.80;100.00
77431;BME280;66498;48.564;19.272;2024-02-15T05:36:16;98170.47;;;2.48;100.00
77431;BME280;66498;48.564;19.272;2024-02-15T05:38:42;98171.00;;;2.86;100.00
77431;BME280;66498;48.564;19.272;2024-02-15T05:41:11;98169.84;;;2.80;100.00
77431;BME280;66498;48.564;19.272;2024-02-15T05:43:37;98180.50;;;2.77;100.00
77431;BME280;66498;48.564;19.272;2024-02-15T05:46:07;98179.28;;;2.89;100.00
77431;BME280;66498;48.564;19.272;2024-02-15T05:48:33;98183.97;;;2.86;100.00
77431;BME280;66498;48.564;19.272;2024-02-15T05:51:02;98189.28;;;2.84;100.00
77431;BME280;66498;48.564;19.272;2024-02-15T05:53:28;98186.06;;;2.90;100.00
77431;BME280;66498;48.564;19.272;2024-02-15T05:55:55;98186.06;;;2.90;100.00
77431;BME280;66498;48.564;19.272;2024-02-15T05:58:25;98189.53;;;3.07;100.00
77431;BME280;66498;48.564;19.272;2024-02-15T06:00:51;98200.91;;;3.22;100.00
77431;BME280;66498;48.564;19.272;2024-02-15T06:03:17;98199.00;;;3.32;100.00
77431;BME280;66498;48.564;19.272;2024-02-15T06:05:43;98202.53;;;3.15;100.00
77431;BME280;66498;48.564;19.272;2024-02-15T06:08:10;98202.81;;;2.96;100.00
77431;BME280;66498;48.564;19.272;2024-02-15T06:10:39;98205.84;;;2.91;100.00
77431;BME280;66498;48.564;19.272;2024-02-15T06:13:05;98215.63;;;3.05;100.00
77431;BME280;66498;48.564;19.272;2024-02-15T06:15:31;98215.72;;;2.88;100.00
77431;BME280;66498;48.564;19.272;2024-02-15T06:17:57;98214.75;;;2.89;100.00
77431;BME280;66498;48.564;19.272;2024-02-15T06:20:22;98210.59;;;2.96;100.00
77431;BME280;66498;48.564;19.272;2024-02-15T06:22:48;98214.03;;;2.78;100.00
77431;BME280;66498;48.564;19.272;2024-02-15T06:25:14;98225.16;;;2.97;100.00
77431;BME280;66498;48.564;19.272;2024-02-15T06:27:40;98229.09;;;3.09;100.00
77431;BME280;66498;48.564;19.272;2024-02-15T06:30:12;98236.06;;;3.08;100.00
77431;BME280;66498;48.564;19.272;2024-02-15T06:32:57;98232.81;;;3.06;100.00
77431;BME280;66498;48.564;19.272;2024-02-15T06:35:41;98231.41;;;3.20;100.00
77431;BME280;66498;48.564;19.272;2024-02-15T06:38:25;98235.31;;;3.16;100.00
77431;BME280;66498;48.564;19.272;2024-02-15T06:41:09;98239.03;;;3.22;100.00
77431;BME280;66498;48.564;19.272;2024-02-15T06:43:37;98238.28;;;3.46;100.00
77431;BME280;66498;48.564;19.272;2024-02-15T06:46:06;98240.56;;;3.41;100.00
77431;BME280;66498;48.564;19.272;2024-02-15T06:48:31;98243.97;;;3.49;100.00
77431;BME280;66498;48.564;19.272;2024-02-15T06:50:57;98246.28;;;3.77;100.00
77431;BME280;66498;48.564;19.272;2024-02-15T06:53:23;98253.09;;;3.70;100.00
77431;BME280;66498;48.564;19.272;2024-02-15T06:55:49;98254.34;;;3.49;100.00
77431;BME280;66498;48.564;19.272;2024-02-15T06:58:16;98254.66;;;3.46;100.00
77431;BME280;66498;48.564;19.272;2024-02-15T07:00:45;98253.94;;;3.70;100.00
77431;BME280;66498;48.564;19.272;2024-02-15T07:03:10;98254.75;;;3.71;100.00
77431;BME280;66498;48.564;19.272;2024-02-15T07:05:38;98254.25;;;3.67;100.00
77431;BME280;66498;48.564;19.272;2024-02-15T07:08:05;98262.69;;;3.61;100.00
77431;BME280;66498;48.564;19.272;2024-02-15T07:10:31;98263.00;;;3.58;100.00
77431;BME280;66498;48.564;19.272;2024-02-15T07:12:57;98268.50;;;3.63;100.00
77431;BME280;66498;48.564;19.272;2024-02-15T07:15:22;98257.03;;;3.82;100.00
77431;BME280;66498;48.564;19.272;2024-02-15T07:17:48;98267.09;;;3.93;100.00
77431;BME280;66498;48.564;19.272;2024-02-15T07:20:13;98264.50;;;3.85;100.00
77431;BME280;66498;48.564;19.272;2024-02-15T07:22:43;98265.13;;;3.79;100.00
77431;BME280;66498;48.564;19.272;2024-02-15T07:25:09;98270.00;;;3.90;100.00
77431;BME280;66498;48.564;19.272;2024-02-15T07:27:35;98264.47;;;3.69;100.00
77431;BME280;66498;48.564;19.272;2024-02-15T07:30:01;98263.81;;;3.67;100.00
77431;BME280;66498;48.564;19.272;2024-02-15T07:32:28;98260.44;;;3.74;100.00
77431;BME280;66498;48.564;19.272;2024-02-15T07:34:54;98261.38;;;3.65;100.00
77431;BME280;66498;48.564;19.272;2024-02-15T07:37:20;98271.66;;;3.99;100.00
77431;BME280;66498;48.564;19.272;2024-02-15T07:39:49;98259.66;;;3.98;100.00
77431;BME280;66498;48.564;19.272;2024-02-15T07:42:15;98261.44;;;4.06;100.00
77431;BME280;66498;48.564;19.272;2024-02-15T07:44:40;98263.53;;;3.86;100.00
77431;BME280;66498;48.564;19.272;2024-02-15T07:47:06;98258.19;;;3.96;100.00
77431;BME280;66498;48.564;19.272;2024-02-15T07:49:32;98253.31;;;4.01;100.00
77431;BME280;66498;48.564;19.272;2024-02-15T07:51:58;98257.22;;;4.05;100.00
77431;BME280;66498;48.564;19.272;2024-02-15T07:54:25;98248.91;;;3.93;100.00
77431;BME280;66498;48.564;19.272;2024-02-15T07:56:51;98248.44;;;4.06;100.00
77431;BME280;66498;48.564;19.272;2024-02-15T07:59:17;98242.09;;;3.92;100.00
77431;BME280;66498;48.564;19.272;2024-02-15T08:01:43;98248.88;;;3.77;100.00
77431;BME280;66498;48.564;19.272;2024-02-15T08:04:09;98248.88;;;3.69;100.00
77431;BME280;66498;48.564;19.272;2024-02-15T08:06:34;98253.75;;;3.80;100.00
77431;BME280;66498;48.564;19.272;2024-02-15T08:09:02;98252.50;;;3.84;100.00
77431;BME280;66498;48.564;19.272;2024-02-15T08:11:30;98252.78;;;3.73;100.00
77431;BME280;66498;48.564;19.272;2024-02-15T08:13:56;98255.69;;;3.62;100.00
77431;BME280;66498;48.564;19.272;2024-02-15T08:16:25;98249.53;;;3.63;100.00
77431;BME280;66498;48.564;19.272;2024-02-15T08:18:54;98248.75;;;3.70;100.00
77431;BME280;66498;48.564;19.272;2024-02-15T08:21:31;98257.34;;;3.79;100.00
77431;BME280;66498;48.564;19.272;2024-02-15T08:24:00;98259.63;;;3.90;100.00
77431;BME280;66498;48.564;19.272;2024-02-15T08:26:38;98252.34;;;4.02;100.00
77431;BME280;66498;48.564;19.272;2024-02-15T08:29:06;98249.44;;;4.21;100.00
77431;BME280;66498;48.564;19.272;2024-02-15T08:31:32;98255.09;;;4.00;100.00
77431;BME280;66498;48.564;19.272;2024-02-15T08:34:01;98263.72;;;4.01;100.00
77431;BME280;66498;48.564;19.272;2024-02-15T08:36:26;98265.00;;;4.05;100.00
77431;BME280;66498;48.564;19.272;2024-02-15T08:38:53;98260.78;;;4.29;100.00
77431;BME280;66498;48.564;19.272;2024-02-15T08:41:21;98268.59;;;4.29;100.00
77431;BME280;66498;48.564;19.272;2024-02-15T08:43:49;98268.25;;;4.40;100.00
77431;BME280;66498;48.564;19.272;2024-02-15T08:46:15;98267.41;;;4.47;100.00
77431;BME280;66498;48.564;19.272;2024-02-15T08:48:40;98260.94;;;4.43;100.00
77431;BME280;66498;48.564;19.272;2024-02-15T08:51:06;98259.97;;;4.36;100.00
77431;BME280;66498;48.564;19.272;2024-02-15T08:53:34;98261.75;;;4.52;100.00
77431;BME280;66498;48.564;19.272;2024-02-15T08:56:03;98267.56;;;4.70;100.00
77431;BME280;66498;48.564;19.272;2024-02-15T08:58:29;98268.53;;;4.61;100.00
77431;BME280;66498;48.564;19.272;2024-02-15T09:00:58;98273.25;;;4.74;100.00
77431;BME280;66498;48.564;19.272;2024-02-15T09:03:24;98262.22;;;4.56;100.00
77431;BME280;66498;48.564;19.272;2024-02-15T09:05:50;98264.97;;;4.54;100.00
77431;BME280;66498;48.564;19.272;2024-02-15T09:08:16;98262.88;;;4.66;100.00
77431;BME280;66498;48.564;19.272;2024-02-15T09:10:46;98264.66;;;4.65;100.00
77431;BME280;66498;48.564;19.272;2024-02-15T09:13:12;98269.72;;;4.59;100.00
77431;BME280;66498;48.564;19.272;2024-02-15T09:15:38;98266.41;;;4.65;100.00
77431;BME280;66498;48.564;19.272;2024-02-15T09:18:06;98267.88;;;4.76;100.00
77431;BME280;66498;48.564;19.272;2024-02-15T09:20:35;98276.78;;;4.81;100.00
77431;BME280;66498;48.564;19.272;2024-02-15T09:23:03;98270.75;;;4.89;100.00
77431;BME280;66498;48.564;19.272;2024-02-15T09:25:34;98271.84;;;5.03;99.86
77431;BME280;66498;48.564;19.272;2024-02-15T09:28:00;98260.97;;;5.07;99.57
77431;BME280;66498;48.564;19.272;2024-02-15T09:30:25;98268.91;;;5.06;100.00
77431;BME280;66498;48.564;19.272;2024-02-15T09:32:53;98265.84;;;5.10;100.00
77431;BME280;66498;48.564;19.272;2024-02-15T09:35:18;98265.94;;;5.25;97.97
77431;BME280;66498;48.564;19.272;2024-02-15T09:37:46;98273.22;;;5.30;96.53
77431;BME280;66498;48.564;19.272;2024-02-15T09:40:14;98265.94;;;5.25;94.87
77431;BME280;66498;48.564;19.272;2024-02-15T09:42:41;98269.66;;;5.31;94.72
77431;BME280;66498;48.564;19.272;2024-02-15T09:45:11;98263.31;;;5.33;94.27
77431;BME280;66498;48.564;19.272;2024-02-15T09:47:41;98264.91;;;5.34;96.30
77431;BME280;66498;48.564;19.272;2024-02-15T09:52:33;98265.25;;;5.62;95.73
77431;BME280;66498;48.564;19.272;2024-02-15T09:55:03;98264.84;;;5.74;94.30
77431;BME280;66498;48.564;19.272;2024-02-15T09:57:29;98262.09;;;5.75;96.61
77431;BME280;66498;48.564;19.272;2024-02-15T09:59:58;98263.13;;;5.66;96.42
77431;BME280;66498;48.564;19.272;2024-02-15T10:02:26;98253.84;;;5.63;96.16
77431;BME280;66498;48.564;19.272;2024-02-15T10:04:53;98257.38;;;5.70;94.90
77431;BME280;66498;48.564;19.272;2024-02-15T10:07:24;98257.09;;;5.65;93.90
77431;BME280;66498;48.564;19.272;2024-02-15T10:09:52;98258.69;;;5.98;92.65
77431;BME280;66498;48.564;19.272;2024-02-15T10:12:18;98263.44;;;5.71;92.50
77431;BME280;66498;48.564;19.272;2024-02-15T10:14:51;98257.28;;;5.64;91.22
77431;BME280;66498;48.564;19.272;2024-02-15T10:17:20;98254.91;;;5.77;90.72
77431;BME280;66498;48.564;19.272;2024-02-15T10:20:02;98252.59;;;5.82;90.18
77431;BME280;66498;48.564;19.272;2024-02-15T10:22:28;98251.16;;;5.80;91.00
77431;BME280;66498;48.564;19.272;2024-02-15T10:25:11;98246.59;;;5.82;92.48
77431;BME280;66498;48.564;19.272;2024-02-15T10:27:36;98255.50;;;5.56;91.92
77431;BME280;66498;48.564;19.272;2024-02-15T10:30:19;98247.66;;;5.64;93.42
77431;BME280;66498;48.564;19.272;2024-02-15T10:32:46;98251.88;;;5.65;92.28
77431;BME280;66498;48.564;19.272;2024-02-15T10:35:21;98257.16;;;5.80;90.56
77431;BME280;66498;48.564;19.272;2024-02-15T10:37:51;98256.41;;;5.72;91.62
77431;BME280;66498;48.564;19.272;2024-02-15T10:40:20;98252.47;;;5.76;91.96
77431;BME280;66498;48.564;19.272;2024-02-15T10:42:51;98249.56;;;6.02;89.71
77431;BME280;66498;48.564;19.272;2024-02-15T10:45:20;98252.44;;;6.07;87.75
77431;BME280;66498;48.564;19.272;2024-02-15T10:47:46;98248.38;;;6.04;87.35
77431;BME280;66498;48.564;19.272;2024-02-15T10:50:15;98242.94;;;5.91;88.14
77431;BME280;66498;48.564;19.272;2024-02-15T10:52:57;98242.38;;;6.04;88.24
77431;BME280;66498;48.564;19.272;2024-02-15T10:55:38;98250.53;;;6.24;87.27
77431;BME280;66498;48.564;19.272;2024-02-15T10:58:06;98241.53;;;6.26;87.70
77431;BME280;66498;48.564;19.272;2024-02-15T11:00:35;98233.19;;;6.31;88.55
77431;BME280;66498;48.564;19.272;2024-02-15T11:03:07;98231.69;;;6.36;87.07
77431;BME280;66498;48.564;19.272;2024-02-15T11:05:37;98234.03;;;6.46;87.27
77431;BME280;66498;48.564;19.272;2024-02-15T11:08:08;98228.22;;;6.59;86.32
77431;BME280;66498;48.564;19.272;2024-02-15T11:10:35;98229.19;;;6.58;86.78
77431;BME280;66498;48.564;19.272;2024-02-15T11:13:02;98227.19;;;6.45;87.97
77431;BME280;66498;48.564;19.272;2024-02-15T11:15:41;98223.31;;;6.41;89.19
77431;BME280;66498;48.564;19.272;2024-02-15T11:18:07;98220.44;;;6.51;89.11
77431;BME280;66498;48.564;19.272;2024-02-15T11:23:02;98222.81;;;6.75;88.18
77431;BME280;66498;48.564;19.272;2024-02-15T11:25:35;98219.75;;;6.72;89.28
77431;BME280;66498;48.564;19.272;2024-02-15T11:30:46;98214.97;;;6.75;87.60
77431;BME280;66498;48.564;19.272;2024-02-15T11:33:34;98218.94;;;6.71;87.65
77431;BME280;66498;48.564;19.272;2024-02-15T11:38:34;98219.66;;;6.95;87.12
77431;BME280;66498;48.564;19.272;2024-02-15T11:41:06;98218.78;;;6.73;89.92
77431;BME280;66498;48.564;19.272;2024-02-15T11:46:18;98208.66;;;6.99;87.49
77431;BME280;66498;48.564;19.272;2024-02-15T11:48:48;98209.03;;;6.81;89.35
77431;BME280;66498;48.564;19.272;2024-02-15T11:51:26;98203.81;;;6.81;91.07
77431;BME280;66498;48.564;19.272;2024-02-15T11:56:31;98191.84;;;6.87;90.99
77431;BME280;66498;48.564;19.272;2024-02-15T11:59:05;98194.47;;;6.87;90.14
77431;BME280;66498;48.564;19.272;2024-02-15T12:01:33;98192.13;;;6.92;91.20
77431;BME280;66498;48.564;19.272;2024-02-15T12:04:19;98195.78;;;7.13;90.05
77431;BME280;66498;48.564;19.272;2024-02-15T12:07:03;98185.53;;;7.11;90.78
77431;BME280;66498;48.564;19.272;2024-02-15T12:09:47;98184.25;;;7.22;89.94
77431;BME280;66498;48.564;19.272;2024-02-15T12:12:31;98191.06;;;7.59;88.99
77431;BME280;66498;48.564;19.272;2024-02-15T12:15:15;98188.75;;;7.71;84.00
77431;BME280;66498;48.564;19.272;2024-02-15T12:18:17;98181.75;;;7.71;84.62
77431;BME280;66498;48.564;19.272;2024-02-15T12:21:02;98185.78;;;7.52;85.64
77431;BME280;66498;48.564;19.272;2024-02-15T12:23:28;98176.88;;;7.47;85.45
77431;BME280;66498;48.564;19.272;2024-02-15T12:25:57;98177.88;;;7.67;87.08
77431;BME280;66498;48.564;19.272;2024-02-15T12:28:23;98170.84;;;7.89;85.73
77431;BME280;66498;48.564;19.272;2024-02-15T12:30:55;98168.66;;;7.93;85.74
77431;BME280;66498;48.564;19.272;2024-02-15T12:33:23;98167.47;;;7.74;84.94
77431;BME280;66498;48.564;19.272;2024-02-15T12:35:49;98157.28;;;7.79;85.80
77431;BME280;66498;48.564;19.272;2024-02-15T12:38:18;98156.66;;;7.98;85.62
77431;BME280;66498;48.564;19.272;2024-02-15T12:40:44;98159.06;;;8.00;83.84
77431;BME280;66498;48.564;19.272;2024-02-15T12:43:10;98154.53;;;8.09;82.43
77431;BME280;66498;48.564;19.272;2024-02-15T12:45:43;98163.47;;;8.56;80.56
77431;BME280;66498;48.564;19.272;2024-02-15T12:48:09;98158.25;;;8.56;82.43
77431;BME280;66498;48.564;19.272;2024-02-15T12:50:35;98156.31;;;8.64;81.68
77431;BME280;66498;48.564;19.272;2024-02-15T12:53:01;98154.72;;;8.70;80.74
77431;BME280;66498;48.564;19.272;2024-02-15T12:55:35;98140.81;;;8.63;79.76
77431;BME280;66498;48.564;19.272;2024-02-15T12:58:03;98142.88;;;8.74;78.77
77431;BME280;66498;48.564;19.272;2024-02-15T13:00:31;98140.66;;;8.77;79.59
77431;BME280;66498;48.564;19.272;2024-02-15T13:02:59;98144.09;;;8.78;79.31
77431;BME280;66498;48.564;19.272;2024-02-15T13:05:26;98144.47;;;8.75;79.30
77431;BME280;66498;48.564;19.272;2024-02-15T13:07:53;98144.59;;;8.60;81.35
77431;BME280;66498;48.564;19.272;2024-02-15T13:10:22;98139.09;;;8.20;83.95
77431;BME280;66498;48.564;19.272;2024-02-15T13:12:48;98140.75;;;8.28;84.38
77431;BME280;66498;48.564;19.272;2024-02-15T13:15:15;98135.34;;;8.29;84.29
77431;BME280;66498;48.564;19.272;2024-02-15T13:17:46;98139.81;;;8.36;85.50